Time;durP1;ratioP1;P1;durP2;ratioP2;P2;SDS_P1;SDS_P2;PMS_P1;PMS_P2;Temp;Humidity;BMP_temperature;BMP_pressure;BME280_temperature;BME280_humidity;BME280_pressure;Samples;Min_cycle;Max_cycle;Signal;HPM_P1;HPM_P2
2023/09/22 00:00:49;;;;;;;;;;;21.70;67.50;;;;;;5068771;28;1474;-67
2023/09/22 00:03:15;;;;;;;;;;;21.70;67.50;;;;;;5068738;28;1387;-67
2023/09/22 00:05:40;;;;;;;;;;;21.70;67.50;;;;;;5069833;28;1365;-67
2023/09/22 00:08:06;;;;;;;;;;;21.70;67.50;;;;;;5069921;28;1267;-67
2023/09/22 00:10:32;;;;;;;;;;;21.70;67.50;;;;;;5062495;28;1467;-67
2023/09/22 00:12:58;;;;;;;;;;;21.70;67.50;;;;;;5070765;28;1906;-67
2023/09/22 00:15:23;;;;;;;;;;;21.70;67.50;;;;;;5070510;28;1288;-67
2023/09/22 00:17:49;;;;;;;;;;;21.70;67.60;;;;;;5066242;28;1401;-67
2023/09/22 00:20:15;;;;;;;;;;;21.70;68.30;;;;;;5069655;28;1182;-67
2023/09/22 00:22:43;;;;;;;;;;;21.70;67.50;;;;;;5069622;28;1292;-67
2023/09/22 00:25:09;;;;;;;;;;;21.70;67.60;;;;;;5069277;28;1286;-67
2023/09/22 00:27:35;;;;;;;;;;;21.70;67.60;;;;;;5071258;28;1104;-67
2023/09/22 00:30:01;;;;;;;;;;;21.70;67.60;;;;;;5067682;28;1139;-67
2023/09/22 00:32:26;;;;;;;;;;;21.70;67.60;;;;;;5070456;28;1894;-66
2023/09/22 00:34:52;;;;;;;;;;;21.70;67.60;;;;;;5068418;28;1648;-66
2023/09/22 00:37:17;;;;;;;;;;;21.70;67.60;;;;;;5070014;28;1144;-66
2023/09/22 00:39:43;;;;;;;;;;;21.70;67.60;;;;;;5068525;28;1257;-66
2023/09/22 00:42:09;;;;;;;;;;;21.70;67.70;;;;;;5069876;28;1364;-66
2023/09/22 00:44:35;;;;;;;;;;;21.70;67.60;;;;;;5069365;28;1428;-67
2023/09/22 00:47:01;;;;;;;;;;;21.70;67.60;;;;;;5069049;28;1305;-66
2023/09/22 00:49:26;;;;;;;;;;;21.70;67.60;;;;;;5070147;28;980;-66
2023/09/22 00:51:52;;;;;;;;;;;21.70;67.70;;;;;;5068135;28;1921;-67
2023/09/22 00:54:17;;;;;;;;;;;21.70;67.70;;;;;;5070270;28;1438;-67
2023/09/22 00:56:43;;;;;;;;;;;21.70;67.70;;;;;;5068909;28;1281;-67
2023/09/22 00:59:09;;;;;;;;;;;21.70;67.70;;;;;;5062711;28;1396;-66
2023/09/22 01:01:34;;;;;;;;;;;21.70;67.70;;;;;;5067263;28;1492;-67
2023/09/22 01:03:59;;;;;;;;;;;21.70;67.70;;;;;;5068441;28;1370;-67
2023/09/22 01:09:05;;;;;;;;;;;21.70;67.70;;;;;;5368009;22;7224;-66
2023/09/22 01:11:33;;;;;;;;;;;21.70;67.70;;;;;;5060103;28;1934;-66
2023/09/22 01:13:58;;;;;;;;;;;21.70;67.70;;;;;;5058503;28;1232;-66
2023/09/22 01:16:24;;;;;;;;;;;21.70;67.70;;;;;;5059447;28;1346;-67
2023/09/22 01:18:49;;;;;;;;;;;21.70;67.70;;;;;;5061473;28;1471;-67
2023/09/22 01:21:14;;;;;;;;;;;21.70;67.80;;;;;;5061358;28;1409;-67
2023/09/22 01:23:40;;;;;;;;;;;21.70;67.70;;;;;;5058163;28;1495;-67
2023/09/22 01:26:06;;;;;;;;;;;21.70;67.80;;;;;;5041353;28;1404;-67
2023/09/22 01:28:31;;;;;;;;;;;21.70;67.70;;;;;;5066144;28;1255;-66
2023/09/22 01:30:58;;;;;;;;;;;21.70;67.80;;;;;;5061334;28;1336;-67
2023/09/22 01:33:24;;;;;;;;;;;21.70;67.80;;;;;;5062145;28;1967;-66
2023/09/22 01:35:49;;;;;;;;;;;21.70;67.80;;;;;;5060948;28;1183;-66
2023/09/22 01:38:18;;;;;;;;;;;21.70;67.80;;;;;;5060677;28;1345;-66
2023/09/22 01:40:44;;;;;;;;;;;21.70;67.90;;;;;;5062777;28;863;-66
2023/09/22 01:43:10;;;;;;;;;;;21.70;67.80;;;;;;5040057;28;853;-66
2023/09/22 01:45:35;;;;;;;;;;;21.70;67.90;;;;;;5041180;28;1387;-66
2023/09/22 01:48:01;;;;;;;;;;;21.70;67.80;;;;;;5060414;28;1399;-66
2023/09/22 01:50:26;;;;;;;;;;;21.70;67.90;;;;;;5043838;28;1325;-66
2023/09/22 01:52:52;;;;;;;;;;;21.70;67.90;;;;;;5043067;28;1902;-66
2023/09/22 01:55:18;;;;;;;;;;;21.70;67.90;;;;;;5062855;28;1347;-66
2023/09/22 01:57:46;;;;;;;;;;;21.70;67.90;;;;;;5024885;28;1378;-66
2023/09/22 02:00:12;;;;;;;;;;;21.70;67.90;;;;;;5062890;28;1511;-66
2023/09/22 02:02:42;;;;;;;;;;;21.70;67.90;;;;;;5058647;28;1559;-66
2023/09/22 02:05:08;;;;;;;;;;;21.70;67.90;;;;;;5042073;28;1265;-66
2023/09/22 02:07:34;;;;;;;;;;;21.70;67.90;;;;;;5044969;28;1396;-66
2023/09/22 02:10:00;;;;;;;;;;;21.70;67.90;;;;;;5058096;28;1334;-65
2023/09/22 02:12:25;;;;;;;;;;;21.70;67.90;;;;;;5061041;28;1897;-66
2023/09/22 02:14:51;;;;;;;;;;;21.70;67.90;;;;;;5059701;28;1094;-65
2023/09/22 02:17:16;;;;;;;;;;;21.70;67.90;;;;;;5055115;28;1507;-66
2023/09/22 02:19:42;;;;;;;;;;;21.70;68.00;;;;;;5060927;28;998;-65
2023/09/22 02:22:07;;;;;;;;;;;21.70;68.00;;;;;;5059183;28;897;-65
2023/09/22 02:24:33;;;;;;;;;;;21.70;68.00;;;;;;5061602;28;1010;-65
2023/09/22 02:26:58;;;;;;;;;;;21.70;68.00;;;;;;5062364;28;1094;-66
2023/09/22 02:29:24;;;;;;;;;;;21.70;68.00;;;;;;5062112;28;1185;-65
2023/09/22 02:31:49;;;;;;;;;;;21.70;68.00;;;;;;5060760;28;1905;-66
2023/09/22 02:34:20;;;;;;;;;;;21.70;68.00;;;;;;5058455;28;1363;-65
2023/09/22 02:36:46;;;;;;;;;;;21.70;68.00;;;;;;5058299;28;1288;-66
2023/09/22 02:39:12;;;;;;;;;;;21.70;68.00;;;;;;5043170;28;1284;-66
2023/09/22 02:41:37;;;;;;;;;;;21.70;68.00;;;;;;5057492;28;1325;-66
2023/09/22 02:44:06;;;;;;;;;;;21.70;68.00;;;;;;5056059;28;1338;-66
2023/09/22 02:46:34;;;;;;;;;;;21.70;68.00;;;;;;5058173;28;1263;-66
2023/09/22 02:49:00;;;;;;;;;;;21.70;68.10;;;;;;5042487;28;1410;-66
2023/09/22 02:51:26;;;;;;;;;;;21.70;68.10;;;;;;5032049;28;1976;-66
2023/09/22 02:53:53;;;;;;;;;;;21.70;68.10;;;;;;5058263;28;1390;-66
2023/09/22 02:56:19;;;;;;;;;;;21.70;68.10;;;;;;5060240;28;1387;-66
2023/09/22 02:58:45;;;;;;;;;;;21.70;68.10;;;;;;5062362;28;1413;-66
2023/09/22 03:01:10;;;;;;;;;;;21.70;68.10;;;;;;5060033;28;1504;-67
2023/09/22 03:03:37;;;;;;;;;;;21.70;68.10;;;;;;5058980;28;1867;-67
2023/09/22 03:06:03;;;;;;;;;;;21.70;68.10;;;;;;5026744;28;1600;-67
2023/09/22 03:08:29;;;;;;;;;;;21.70;68.20;;;;;;5060353;28;2252;-67
2023/09/22 03:10:55;;;;;;;;;;;21.70;68.10;;;;;;5065279;28;1922;-67
2023/09/22 03:13:20;;;;;;;;;;;21.70;68.20;;;;;;5066954;28;1949;-68
2023/09/22 03:15:45;;;;;;;;;;;21.70;68.10;;;;;;5047497;28;1328;-68
2023/09/22 03:18:11;;;;;;;;;;;21.70;68.10;;;;;;5062415;28;1346;-67
2023/09/22 03:20:36;;;;;;;;;;;21.70;68.20;;;;;;5061272;28;1333;-67
2023/09/22 03:23:05;;;;;;;;;;;21.70;68.20;;;;;;5060334;28;1309;-71
2023/09/22 03:25:30;;;;;;;;;;;21.70;68.20;;;;;;5042749;28;1380;-70
2023/09/22 03:27:56;;;;;;;;;;;21.70;68.20;;;;;;5064509;28;1212;-68
2023/09/22 03:30:21;;;;;;;;;;;21.70;68.20;;;;;;5034173;28;1275;-67
2023/09/22 03:32:47;;;;;;;;;;;21.70;68.20;;;;;;5066779;28;1905;-65
2023/09/22 03:35:13;;;;;;;;;;;21.70;68.20;;;;;;5061503;28;1266;-66
2023/09/22 03:37:40;;;;;;;;;;;21.70;68.20;;;;;;5046767;28;1413;-67
2023/09/22 03:40:13;;;;;;;;;;;21.70;68.20;;;;;;5066083;28;1490;-68
2023/09/22 03:42:42;;;;;;;;;;;21.70;68.20;;;;;;5047080;28;1492;-68
2023/09/22 03:45:08;;;;;;;;;;;21.70;68.30;;;;;;5065739;28;1610;-66
2023/09/22 03:47:35;;;;;;;;;;;21.70;68.30;;;;;;5066839;28;1427;-66
2023/09/22 03:50:01;;;;;;;;;;;21.70;68.30;;;;;;5064558;28;1370;-65
2023/09/22 03:52:26;;;;;;;;;;;21.70;68.30;;;;;;5063229;28;1953;-69
2023/09/22 03:54:52;;;;;;;;;;;21.70;68.30;;;;;;5063698;28;1520;-68
2023/09/22 03:57:18;;;;;;;;;;;21.70;68.30;;;;;;5062694;28;1331;-66
2023/09/22 03:59:44;;;;;;;;;;;21.70;68.30;;;;;;5064962;28;1350;-66
2023/09/22 04:02:10;;;;;;;;;;;21.70;68.30;;;;;;5053002;28;1628;-68
2023/09/22 04:04:35;;;;;;;;;;;21.70;68.30;;;;;;5065608;28;983;-69
2023/09/22 04:07:01;;;;;;;;;;;21.70;68.30;;;;;;5065277;28;1191;-67
2023/09/22 04:09:28;;;;;;;;;;;21.70;68.30;;;;;;5066378;28;1300;-66
2023/09/22 04:11:53;;;;;;;;;;;21.70;68.30;;;;;;5066225;28;1997;-66
2023/09/22 04:14:20;;;;;;;;;;;21.70;68.40;;;;;;5045781;28;1177;-66
2023/09/22 04:16:46;;;;;;;;;;;21.70;68.30;;;;;;5045696;28;1593;-67
2023/09/22 04:19:12;;;;;;;;;;;21.70;68.30;;;;;;5066025;28;1680;-70
2023/09/22 04:21:42;;;;;;;;;;;21.70;68.30;;;;;;5062825;28;1471;-66
2023/09/22 04:24:09;;;;;;;;;;;21.70;68.30;;;;;;5063796;28;1401;-68
2023/09/22 04:26:42;;;;;;;;;;;21.70;68.30;;;;;;5063330;28;1369;-66
2023/09/22 04:29:10;;;;;;;;;;;21.70;68.40;;;;;;5061862;28;1526;-68
2023/09/22 04:31:36;;;;;;;;;;;21.70;68.30;;;;;;5035286;28;1902;-67
2023/09/22 04:34:02;;;;;;;;;;;21.70;68.40;;;;;;5043924;28;1626;-67
2023/09/22 04:36:27;;;;;;;;;;;21.70;68.40;;;;;;5047232;28;1513;-65
2023/09/22 04:38:53;;;;;;;;;;;21.70;68.30;;;;;;5064453;28;1529;-67
2023/09/22 04:41:19;;;;;;;;;;;21.70;68.40;;;;;;5059471;28;1117;-67
2023/09/22 04:43:45;;;;;;;;;;;21.70;68.40;;;;;;5061920;28;1524;-67
2023/09/22 04:46:11;;;;;;;;;;;21.70;68.30;;;;;;5062338;28;1342;-67
2023/09/22 04:48:36;;;;;;;;;;;21.70;68.40;;;;;;5047816;28;1452;-67
2023/09/22 04:51:04;;;;;;;;;;;21.70;68.40;;;;;;5042855;28;1130;-67
2023/09/22 04:53:29;;;;;;;;;;;21.70;68.40;;;;;;5060259;28;2493;-67
2023/09/22 04:56:03;;;;;;;;;;;21.70;68.50;;;;;;5062957;28;1177;-66
2023/09/22 04:58:29;;;;;;;;;;;21.70;68.50;;;;;;5060546;28;1448;-66
2023/09/22 05:00:55;;;;;;;;;;;21.70;68.50;;;;;;5061321;28;989;-67
2023/09/22 05:03:21;;;;;;;;;;;21.70;68.50;;;;;;5062401;28;1364;-67
2023/09/22 05:05:48;;;;;;;;;;;21.70;68.50;;;;;;5062000;28;1163;-66
2023/09/22 05:08:14;;;;;;;;;;;21.70;68.50;;;;;;5061253;28;1201;-67
2023/09/22 05:10:39;;;;;;;;;;;21.70;68.50;;;;;;5045065;28;1338;-67
2023/09/22 05:13:05;;;;;;;;;;;21.70;68.50;;;;;;5058593;28;1942;-67
2023/09/22 05:15:31;;;;;;;;;;;21.70;68.50;;;;;;5059550;28;1513;-67
2023/09/22 05:17:57;;;;;;;;;;;21.70;68.50;;;;;;5060244;28;1464;-67
2023/09/22 05:20:24;;;;;;;;;;;21.70;68.50;;;;;;5058193;28;1384;-67
2023/09/22 05:22:49;;;;;;;;;;;21.70;68.50;;;;;;5061485;28;1224;-67
2023/09/22 05:25:16;;;;;;;;;;;21.70;68.50;;;;;;5060355;28;1350;-67
2023/09/22 05:27:44;;;;;;;;;;;21.70;68.50;;;;;;5058802;28;1933;-67
2023/09/22 05:30:10;;;;;;;;;;;21.70;68.50;;;;;;5058751;28;1887;-66
2023/09/22 05:32:36;;;;;;;;;;;21.70;68.50;;;;;;5038647;28;1898;-67
2023/09/22 05:35:01;;;;;;;;;;;21.70;68.50;;;;;;5041030;28;1306;-67
2023/09/22 05:37:27;;;;;;;;;;;21.70;68.60;;;;;;5037466;28;1592;-67
2023/09/22 05:39:53;;;;;;;;;;;21.70;68.60;;;;;;5061629;28;1323;-67
2023/09/22 05:42:18;;;;;;;;;;;21.70;68.60;;;;;;5060928;28;1224;-66
2023/09/22 05:44:44;;;;;;;;;;;21.70;68.60;;;;;;5059309;28;1366;-67
2023/09/22 05:47:09;;;;;;;;;;;21.70;68.60;;;;;;5041729;28;1280;-66
2023/09/22 05:49:35;;;;;;;;;;;21.70;68.70;;;;;;5058476;28;1330;-67
2023/09/22 05:52:00;;;;;;;;;;;21.70;68.70;;;;;;5059821;28;1930;-67
2023/09/22 05:54:26;;;;;;;;;;;21.70;68.70;;;;;;5045600;28;1510;-67
2023/09/22 05:56:51;;;;;;;;;;;21.70;68.70;;;;;;5041247;28;1456;-67
2023/09/22 05:59:17;;;;;;;;;;;21.70;68.70;;;;;;5061094;28;1670;-67
2023/09/22 06:01:42;;;;;;;;;;;21.70;68.70;;;;;;5057044;28;1277;-67
2023/09/22 06:04:09;;;;;;;;;;;21.70;68.70;;;;;;5059552;28;1637;-67
2023/09/22 06:06:34;;;;;;;;;;;21.70;68.70;;;;;;5060296;28;1444;-67
2023/09/22 06:09:00;;;;;;;;;;;21.70;68.70;;;;;;5055252;28;1855;-67
2023/09/22 06:11:26;;;;;;;;;;;21.70;68.70;;;;;;5061105;28;1972;-67
2023/09/22 06:13:51;;;;;;;;;;;21.70;68.70;;;;;;5058648;28;1872;-66
2023/09/22 06:16:18;;;;;;;;;;;21.70;68.70;;;;;;5061303;28;1348;-66
2023/09/22 06:18:43;;;;;;;;;;;21.70;68.70;;;;;;5060612;28;1527;-66
2023/09/22 06:21:10;;;;;;;;;;;21.70;68.70;;;;;;5063825;28;1633;-67
2023/09/22 06:23:36;;;;;;;;;;;21.70;68.80;;;;;;5061808;28;1350;-67
2023/09/22 06:26:02;;;;;;;;;;;21.70;68.70;;;;;;5059365;28;1414;-66
2023/09/22 06:28:29;;;;;;;;;;;21.70;68.70;;;;;;5059210;28;1308;-66
2023/09/22 06:31:04;;;;;;;;;;;21.70;68.70;;;;;;5045073;23;3707;-69
2023/09/22 06:33:32;;;;;;;;;;;21.70;68.80;;;;;;5017172;28;1992;-69
2023/09/22 06:35:58;;;;;;;;;;;21.70;68.70;;;;;;5035797;28;4872;-70
2023/09/22 06:38:23;;;;;;;;;;;21.70;68.80;;;;;;5047827;28;1370;-69
2023/09/22 06:40:50;;;;;;;;;;;21.70;68.80;;;;;;5038910;28;1468;-71
2023/09/22 06:43:16;;;;;;;;;;;21.70;68.80;;;;;;5017451;28;1376;-69
2023/09/22 06:45:42;;;;;;;;;;;21.70;68.80;;;;;;5023012;28;1118;-72
2023/09/22 06:48:07;;;;;;;;;;;21.70;68.80;;;;;;5020926;28;1330;-68
2023/09/22 06:50:34;;;;;;;;;;;21.70;68.80;;;;;;5036621;28;1367;-71
2023/09/22 06:52:59;;;;;;;;;;;21.70;68.80;;;;;;5024943;28;1942;-71
2023/09/22 06:55:25;;;;;;;;;;;21.70;68.80;;;;;;5024151;28;1146;-74
2023/09/22 06:57:52;;;;;;;;;;;21.70;68.80;;;;;;5036785;28;1191;-73
2023/09/22 07:02:51;;;;;;;;;;;21.70;68.80;;;;;;5036533;28;1890;-68
2023/09/22 07:05:18;;;;;;;;;;;21.70;68.90;;;;;;5042716;28;1330;-68
2023/09/22 07:07:44;;;;;;;;;;;21.70;68.90;;;;;;5056636;28;1482;-68
2023/09/22 07:10:09;;;;;;;;;;;21.70;68.90;;;;;;5039596;28;1501;-68
2023/09/22 07:12:36;;;;;;;;;;;21.70;68.90;;;;;;5043385;28;1971;-68
2023/09/22 07:15:02;;;;;;;;;;;21.70;68.90;;;;;;5013802;28;1175;-67
2023/09/22 07:17:27;;;;;;;;;;;21.70;68.90;;;;;;5014238;28;1154;-68
2023/09/22 07:19:53;;;;;;;;;;;21.70;68.90;;;;;;5042745;28;1189;-68
2023/09/22 07:22:19;;;;;;;;;;;21.70;68.90;;;;;;5044915;28;1388;-68
2023/09/22 07:24:44;;;;;;;;;;;21.70;68.90;;;;;;5022737;28;1052;-68
2023/09/22 07:27:10;;;;;;;;;;;21.70;68.90;;;;;;5042603;28;1508;-67
2023/09/22 07:29:35;;;;;;;;;;;21.70;68.90;;;;;;5042404;28;1343;-67
2023/09/22 07:32:01;;;;;;;;;;;21.70;68.90;;;;;;5042505;28;1922;-67
2023/09/22 07:34:27;;;;;;;;;;;21.70;68.90;;;;;;5039325;28;1259;-67
2023/09/22 07:36:53;;;;;;;;;;;21.70;68.90;;;;;;5042516;28;1373;-68
2023/09/22 07:39:19;;;;;;;;;;;21.70;68.90;;;;;;5040193;28;1246;-67
2023/09/22 07:41:44;;;;;;;;;;;21.70;68.90;;;;;;5041226;28;1396;-67
2023/09/22 07:44:10;;;;;;;;;;;21.70;68.90;;;;;;5043512;28;1332;-67
2023/09/22 07:46:35;;;;;;;;;;;21.70;68.90;;;;;;5023162;28;1153;-67
2023/09/22 07:49:01;;;;;;;;;;;21.70;69.00;;;;;;5041629;28;1140;-67
2023/09/22 07:51:27;;;;;;;;;;;21.70;69.00;;;;;;5042928;28;1967;-68
2023/09/22 07:53:52;;;;;;;;;;;21.70;69.00;;;;;;5042452;28;1265;-67
2023/09/22 07:56:18;;;;;;;;;;;21.70;69.00;;;;;;5041775;28;1171;-67
2023/09/22 07:58:44;;;;;;;;;;;21.70;69.00;;;;;;5045666;28;1217;-67
2023/09/22 08:01:15;;;;;;;;;;;21.70;69.00;;;;;;5039892;28;1438;-67
2023/09/22 08:03:40;;;;;;;;;;;21.70;69.00;;;;;;5024042;28;1320;-67
2023/09/22 08:06:07;;;;;;;;;;;21.70;69.70;;;;;;5042272;28;1356;-67
2023/09/22 08:08:33;;;;;;;;;;;21.70;69.00;;;;;;5040999;28;1126;-68
2023/09/22 08:10:59;;;;;;;;;;;21.70;69.00;;;;;;5041750;28;1403;-67
2023/09/22 08:13:25;;;;;;;;;;;21.70;69.00;;;;;;5041577;28;1922;-67
2023/09/22 08:15:51;;;;;;;;;;;21.70;69.00;;;;;;5040606;28;1358;-67
2023/09/22 08:18:16;;;;;;;;;;;21.70;69.00;;;;;;5039648;28;1350;-67
2023/09/22 08:20:42;;;;;;;;;;;21.70;69.00;;;;;;5039769;28;1337;-67
2023/09/22 08:23:07;;;;;;;;;;;21.70;69.00;;;;;;5040833;28;1796;-67
2023/09/22 08:25:34;;;;;;;;;;;21.60;69.00;;;;;;5038618;28;1427;-67
2023/09/22 08:28:00;;;;;;;;;;;21.70;69.00;;;;;;5042565;28;1377;-67
2023/09/22 08:30:26;;;;;;;;;;;21.70;69.10;;;;;;5023966;28;1258;-67
2023/09/22 08:32:51;;;;;;;;;;;21.70;69.10;;;;;;5020565;28;1913;-67
2023/09/22 08:35:17;;;;;;;;;;;21.70;69.00;;;;;;5040655;28;1381;-67
2023/09/22 08:37:43;;;;;;;;;;;21.70;69.10;;;;;;5022723;28;1453;-67
2023/09/22 08:40:14;;;;;;;;;;;21.70;69.10;;;;;;5039967;28;1287;-67
2023/09/22 08:42:40;;;;;;;;;;;21.60;69.00;;;;;;5024986;28;1455;-68
2023/09/22 08:45:06;;;;;;;;;;;21.70;69.10;;;;;;5024595;28;1260;-67
2023/09/22 08:47:33;;;;;;;;;;;21.70;69.10;;;;;;5038948;28;893;-67
2023/09/22 08:49:59;;;;;;;;;;;21.70;69.10;;;;;;5022676;28;1333;-67
2023/09/22 08:52:24;;;;;;;;;;;21.70;69.10;;;;;;5041846;28;1906;-68
2023/09/22 08:54:50;;;;;;;;;;;21.70;69.10;;;;;;5023376;28;1275;-67
2023/09/22 08:57:16;;;;;;;;;;;21.70;69.10;;;;;;5022766;28;1348;-67
2023/09/22 08:59:42;;;;;;;;;;;21.70;69.10;;;;;;5022869;28;1369;-68
2023/09/22 09:02:08;;;;;;;;;;;21.70;69.10;;;;;;5039950;28;1374;-67
2023/09/22 09:04:39;;;;;;;;;;;21.70;69.10;;;;;;5040663;28;942;-67
2023/09/22 09:07:05;;;;;;;;;;;21.70;69.10;;;;;;5025377;28;1381;-67
2023/09/22 09:09:40;;;;;;;;;;;21.70;69.10;;;;;;5043858;28;1477;-67
2023/09/22 09:12:08;;;;;;;;;;;21.70;69.10;;;;;;5021806;28;1918;-67
2023/09/22 09:14:34;;;;;;;;;;;21.60;69.10;;;;;;5040406;28;1330;-67
2023/09/22 09:16:59;;;;;;;;;;;21.70;69.10;;;;;;5023946;28;1204;-67
2023/09/22 09:19:26;;;;;;;;;;;21.70;69.10;;;;;;5040583;28;1178;-67
2023/09/22 09:22:12;;;;;;;;;;;21.70;69.10;;;;;;5040071;28;1460;-67
2023/09/22 09:24:38;;;;;;;;;;;21.70;69.20;;;;;;5023414;28;1448;-67
2023/09/22 09:27:19;;;;;;;;;;;21.70;69.20;;;;;;5021422;28;1533;-67
2023/09/22 09:29:50;;;;;;;;;;;21.70;69.20;;;;;;5038450;28;994;-67
2023/09/22 09:32:25;;;;;;;;;;;21.70;69.20;;;;;;5042920;28;1989;-67
2023/09/22 09:34:51;;;;;;;;;;;21.70;69.20;;;;;;5024538;28;1137;-67
2023/09/22 09:37:17;;;;;;;;;;;21.70;69.20;;;;;;5019010;28;1370;-67
2023/09/22 09:39:58;;;;;;;;;;;21.70;69.20;;;;;;5038900;28;1740;-68
2023/09/22 09:42:24;;;;;;;;;;;21.60;69.10;;;;;;5024445;28;1735;-68
2023/09/22 09:44:49;;;;;;;;;;;21.60;69.20;;;;;;5037762;28;1465;-67
2023/09/22 09:47:17;;;;;;;;;;;21.60;69.10;;;;;;5044517;28;1312;-67
2023/09/22 09:49:43;;;;;;;;;;;21.70;69.20;;;;;;5019872;28;1463;-67
2023/09/22 09:52:09;;;;;;;;;;;21.60;69.10;;;;;;5037335;28;1973;-67
2023/09/22 09:54:37;;;;;;;;;;;21.70;69.30;;;;;;5021219;28;934;-67
2023/09/22 09:57:04;;;;;;;;;;;21.60;69.20;;;;;;5020595;28;1122;-67
2023/09/22 09:59:30;;;;;;;;;;;21.60;69.20;;;;;;5021587;28;1252;-67
2023/09/22 10:01:55;;;;;;;;;;;21.70;69.30;;;;;;5022815;28;1322;-67
2023/09/22 10:04:21;;;;;;;;;;;21.70;69.20;;;;;;5021312;28;1085;-67
2023/09/22 10:06:46;;;;;;;;;;;21.70;69.20;;;;;;5022952;28;824;-67
2023/09/22 10:09:12;;;;;;;;;;;21.70;69.20;;;;;;5039015;28;1219;-67
2023/09/22 10:11:37;;;;;;;;;;;21.60;69.20;;;;;;5018645;28;1913;-67
2023/09/22 10:14:03;;;;;;;;;;;21.60;69.20;;;;;;5004045;28;1149;-67
2023/09/22 10:16:29;;;;;;;;;;;21.60;69.20;;;;;;5020372;28;1388;-67
2023/09/22 10:18:56;;;;;;;;;;;21.70;69.20;;;;;;5019084;28;1230;-67
2023/09/22 10:21:46;;;;;;;;;;;21.60;69.20;;;;;;5019770;28;1294;-67
2023/09/22 10:24:15;;;;;;;;;;;21.60;69.20;;;;;;5022628;28;1308;-67
2023/09/22 10:26:55;;;;;;;;;;;21.60;69.20;;;;;;5036632;28;1353;-67
2023/09/22 10:29:33;;;;;;;;;;;21.60;69.20;;;;;;5037958;28;1610;-67
2023/09/22 10:32:17;;;;;;;;;;;21.60;69.20;;;;;;5037411;28;1942;-67
2023/09/22 10:35:14;;;;;;;;;;;21.60;69.20;;;;;;5021174;28;1482;-67
2023/09/22 10:37:56;;;;;;;;;;;21.60;69.20;;;;;;5037357;28;1424;-67
2023/09/22 10:40:22;;;;;;;;;;;21.70;69.30;;;;;;5035535;28;1361;-67
2023/09/22 10:42:49;;;;;;;;;;;21.60;69.30;;;;;;5039906;28;1460;-67
2023/09/22 10:45:18;;;;;;;;;;;21.60;69.30;;;;;;5019427;28;1329;-67
2023/09/22 10:47:44;;;;;;;;;;;21.60;69.30;;;;;;5038511;28;1473;-67
2023/09/22 10:50:21;;;;;;;;;;;21.60;69.30;;;;;;5022371;28;1145;-67
2023/09/22 10:52:57;;;;;;;;;;;21.60;69.30;;;;;;5039010;28;1973;-67
2023/09/22 10:55:36;;;;;;;;;;;21.60;69.30;;;;;;5021183;28;1333;-67
2023/09/22 10:58:04;;;;;;;;;;;21.60;69.30;;;;;;5020548;28;1157;-67
2023/09/22 11:00:31;;;;;;;;;;;21.60;69.30;;;;;;5023427;28;1365;-67
2023/09/22 11:03:04;;;;;;;;;;;21.60;69.30;;;;;;5021882;28;1380;-67
2023/09/22 11:05:30;;;;;;;;;;;21.60;69.30;;;;;;5042297;28;1077;-67
2023/09/22 11:07:55;;;;;;;;;;;21.60;69.30;;;;;;5036027;28;1445;-66
2023/09/22 11:10:21;;;;;;;;;;;21.60;69.30;;;;;;5040512;28;1267;-67
2023/09/22 11:12:50;;;;;;;;;;;21.60;69.30;;;;;;5037856;28;1981;-67
2023/09/22 11:15:15;;;;;;;;;;;21.60;69.30;;;;;;5023994;28;1267;-66
2023/09/22 11:17:47;;;;;;;;;;;21.60;69.30;;;;;;5025693;28;1492;-67
2023/09/22 11:20:17;;;;;;;;;;;21.60;69.30;;;;;;5025658;28;1421;-67
2023/09/22 11:22:42;;;;;;;;;;;21.60;69.30;;;;;;5021725;28;1248;-67
2023/09/22 11:25:09;;;;;;;;;;;21.60;69.30;;;;;;5020536;28;1350;-67
2023/09/22 11:27:45;;;;;;;;;;;21.60;69.30;;;;;;5024419;28;1280;-67
2023/09/22 11:30:14;;;;;;;;;;;21.60;69.30;;;;;;5040643;28;1343;-67
2023/09/22 11:32:40;;;;;;;;;;;21.60;69.30;;;;;;5011340;28;1963;-67
2023/09/22 11:35:06;;;;;;;;;;;21.60;69.30;;;;;;5043759;28;1560;-66
2023/09/22 11:37:31;;;;;;;;;;;21.60;69.30;;;;;;5023479;28;1570;-66
2023/09/22 11:39:57;;;;;;;;;;;21.60;69.30;;;;;;5042006;28;1335;-67
2023/09/22 11:42:23;;;;;;;;;;;21.60;69.30;;;;;;5023342;28;1645;-67
2023/09/22 11:44:58;;;;;;;;;;;21.60;69.30;;;;;;5040598;28;1300;-67
2023/09/22 11:47:23;;;;;;;;;;;21.60;69.40;;;;;;5023061;28;1386;-67
2023/09/22 11:49:49;;;;;;;;;;;21.60;69.40;;;;;;5038091;28;1521;-67
2023/09/22 11:52:14;;;;;;;;;;;21.60;69.40;;;;;;5039813;28;1902;-66
2023/09/22 11:54:40;;;;;;;;;;;21.60;69.40;;;;;;5044045;28;1408;-67
2023/09/22 11:57:05;;;;;;;;;;;21.60;69.40;;;;;;5046404;28;1620;-67
2023/09/22 11:59:37;;;;;;;;;;;21.60;69.40;;;;;;5039242;28;1267;-67
2023/09/22 12:02:06;;;;;;;;;;;21.60;69.50;;;;;;5023368;28;1450;-67
2023/09/22 12:04:34;;;;;;;;;;;21.60;69.40;;;;;;5041941;28;1445;-67
2023/09/22 12:07:01;;;;;;;;;;;21.60;69.50;;;;;;5036584;28;1139;-67
2023/09/22 12:09:27;;;;;;;;;;;21.60;69.40;;;;;;5043542;28;1598;-67
2023/09/22 12:11:53;;;;;;;;;;;21.60;69.40;;;;;;5022413;28;1993;-67
2023/09/22 12:14:19;;;;;;;;;;;21.60;69.50;;;;;;5040431;28;1366;-67
2023/09/22 12:16:45;;;;;;;;;;;21.60;69.50;;;;;;5039898;28;1199;-67
2023/09/22 12:19:11;;;;;;;;;;;21.60;69.50;;;;;;5041666;28;1507;-67
2023/09/22 12:21:36;;;;;;;;;;;21.60;69.40;;;;;;5041200;28;1330;-66
2023/09/22 12:24:02;;;;;;;;;;;21.60;69.50;;;;;;5039281;28;1227;-66
2023/09/22 12:26:27;;;;;;;;;;;21.60;69.50;;;;;;5040086;28;1239;-67
2023/09/22 12:28:53;;;;;;;;;;;21.60;69.50;;;;;;5041792;28;1311;-67
2023/09/22 12:31:18;;;;;;;;;;;21.60;69.50;;;;;;5024798;28;1491;-67
2023/09/22 12:33:47;;;;;;;;;;;21.60;69.50;;;;;;5023505;28;1977;-67
2023/09/22 12:36:14;;;;;;;;;;;21.60;69.50;;;;;;5025528;28;1342;-67
2023/09/22 12:38:43;;;;;;;;;;;21.60;69.50;;;;;;5021056;28;1428;-67
2023/09/22 12:41:10;;;;;;;;;;;21.60;69.50;;;;;;5040228;28;1430;-67
2023/09/22 12:43:36;;;;;;;;;;;21.60;69.50;;;;;;5042913;28;1314;-67
2023/09/22 12:46:01;;;;;;;;;;;21.60;69.50;;;;;;5021931;28;1603;-67
2023/09/22 12:48:27;;;;;;;;;;;21.60;69.60;;;;;;5040406;28;972;-67
2023/09/22 12:50:53;;;;;;;;;;;21.60;69.50;;;;;;5038992;28;1384;-67
2023/09/22 12:53:18;;;;;;;;;;;21.60;69.50;;;;;;5027237;28;1898;-67
2023/09/22 12:55:44;;;;;;;;;;;21.60;69.50;;;;;;5040482;28;1433;-67
2023/09/22 12:58:09;;;;;;;;;;;21.60;69.50;;;;;;5039163;28;1231;-67
2023/09/22 13:00:42;;;;;;;;;;;21.60;69.50;;;;;;5041501;28;1403;-67
2023/09/22 13:03:07;;;;;;;;;;;21.60;69.50;;;;;;5064459;23;1914;-66
2023/09/22 13:05:33;;;;;;;;;;;21.60;69.50;;;;;;5058027;28;1701;-65
2023/09/22 13:07:58;;;;;;;;;;;21.60;69.60;;;;;;5064336;28;1256;-65
2023/09/22 13:10:24;;;;;;;;;;;21.60;69.60;;;;;;5061346;28;1116;-65
2023/09/22 13:12:49;;;;;;;;;;;21.60;69.60;;;;;;5043049;28;1983;-65
2023/09/22 13:15:15;;;;;;;;;;;21.60;69.60;;;;;;5063456;28;1267;-64
2023/09/22 13:17:40;;;;;;;;;;;21.60;69.60;;;;;;5061179;28;1531;-66
2023/09/22 13:20:06;;;;;;;;;;;21.60;69.50;;;;;;5045538;28;1339;-66
2023/09/22 13:22:32;;;;;;;;;;;21.60;69.50;;;;;;5062853;28;1330;-66
2023/09/22 13:24:58;;;;;;;;;;;21.60;69.60;;;;;;5058889;28;1296;-66
2023/09/22 13:27:23;;;;;;;;;;;21.60;69.60;;;;;;5057848;28;1515;-66
2023/09/22 13:29:49;;;;;;;;;;;21.60;69.60;;;;;;5057602;28;1496;-66
2023/09/22 13:32:15;;;;;;;;;;;21.60;69.60;;;;;;5058491;28;1918;-64
2023/09/22 13:34:40;;;;;;;;;;;21.60;69.60;;;;;;5060358;28;1284;-65
2023/09/22 13:37:06;;;;;;;;;;;21.60;69.60;;;;;;5057910;28;1241;-64
2023/09/22 13:39:32;;;;;;;;;;;21.60;69.60;;;;;;5057387;28;1250;-64
2023/09/22 13:41:57;;;;;;;;;;;21.60;69.60;;;;;;5060005;28;1319;-66
2023/09/22 13:44:23;;;;;;;;;;;21.60;69.60;;;;;;5044828;28;1355;-66
2023/09/22 13:46:49;;;;;;;;;;;21.60;69.60;;;;;;5042934;28;1481;-66
2023/09/22 13:49:14;;;;;;;;;;;21.60;69.60;;;;;;5058639;28;1430;-66
2023/09/22 13:51:40;;;;;;;;;;;21.60;69.60;;;;;;5058663;28;1952;-66
2023/09/22 13:54:06;;;;;;;;;;;21.60;69.60;;;;;;5058384;28;1379;-66
2023/09/22 13:56:31;;;;;;;;;;;21.60;69.60;;;;;;5038408;28;1531;-66
2023/09/22 13:58:57;;;;;;;;;;;21.60;69.60;;;;;;5060503;28;1320;-66
2023/09/22 14:01:22;;;;;;;;;;;21.60;69.60;;;;;;5060567;28;1349;-65
2023/09/22 14:03:48;;;;;;;;;;;21.60;69.60;;;;;;5059140;28;1446;-65
2023/09/22 14:06:14;;;;;;;;;;;21.60;69.60;;;;;;5060003;28;1639;-64
2023/09/22 14:08:40;;;;;;;;;;;21.60;69.60;;;;;;5057248;28;1699;-66
2023/09/22 14:11:07;;;;;;;;;;;21.60;69.60;;;;;;5058251;28;1326;-66
2023/09/22 14:13:32;;;;;;;;;;;21.60;69.60;;;;;;5060390;28;1942;-64
2023/09/22 14:15:58;;;;;;;;;;;21.60;69.60;;;;;;5059395;28;1288;-64
2023/09/22 14:18:24;;;;;;;;;;;21.60;69.60;;;;;;5060182;28;1561;-64
2023/09/22 14:20:49;;;;;;;;;;;21.60;69.60;;;;;;5062155;28;1452;-64
2023/09/22 14:23:15;;;;;;;;;;;21.60;69.60;;;;;;5057511;28;1640;-65
2023/09/22 14:25:41;;;;;;;;;;;21.60;69.60;;;;;;5060594;28;1393;-66
2023/09/22 14:28:06;;;;;;;;;;;21.60;69.60;;;;;;5059563;28;1164;-64
2023/09/22 14:30:32;;;;;;;;;;;21.60;69.60;;;;;;5059419;28;1629;-65
2023/09/22 14:32:57;;;;;;;;;;;21.60;69.60;;;;;;5058233;28;1989;-65